Smyrna, TN (MQY)

CessnaPCRedbird FMX


Wings of Eagles Aviation started in Smyrna (MQY) in 1998 as a small flight school. The Smyrna Airport is the third largest airport in the state of Tennessee and the busiest general aviation airport. With its longest runway being just over 8,000 feet and having its own air traffic control tower, this is the best possible training environment for all pilots. Once you learn how to fly here, you will be confident no matter where your aviation adventures take you.

Address:
278 Doug Warpoole Rd. Suite 104
Smyrna, TN 37167

Phone: (615) 355-0033

Business Hours:
Monday-Sunday 7a-10p

Wings MQY

NOAA Weather

Smyrna, TN

Last Updated on Sep 23 2017, 10:56 pm CDT

Current Conditions: Fair

NOAA Icon

Temp: 0°F

Wind: North at 0mph

Humidity: n/a

Your 5-Day Forecast at a Glance

Available data for KMQY from the past 2 hours
SMYRNA, TN
Metar
KMQY 240356Z AUTO 00000KT 10SM CLR RMK AO2 SLPNO $
TAF
KMQY 232320Z 2400/2424 10003KT P6SM SKC FM240800 00000KT 4SM BR SKC FM241000 00000KT 2SM BR SKC FM241200 18006KT P6SM SCT040 AMD NOT SKED